Alm Tesl — YJTS6 — position and weather

sailwx.info

Track history (hours):
 
Tides and Currents Weather Stations Pressure Air Temp Water Temp Dewpoint Dewpoint Depression Visibility Wind Speed Wind Dir Waves Ship Positions

Alm Tesl

Last reported at 2017-Sep-10 06:16 UTC. Time now 2017-Sep-24 15:44 UTC.
Position N 40°42' E 027°26'.
Warning: this ship's position is 14 days out of date.

Length 88 m; draft 12.5 m.

Type: Cargo ship. MMSI: 201222000.

Date/timePositionNaut miles runAvg speedWind from/ knotsBaromVisibWave heightAir tempDewpointWater temp
2017-Sep-10 06:16N 40°42' E 027°26'2 7.7
2017-Sep-10 06:00N 40°43' E 027°28'4 7.6
2017-Sep-10 05:30N 40°45' E 027°32'34 7.4
2017-Sep-10 00:56N 40°52' E 028°16'18 7.6
2017-Sep-09 22:35N 40°54' E 028°40'2 7.7
2017-Sep-09 22:16N 40°55' E 028°43'11 3.0
2017-Sep-09 18:45N 40°58' E 028°56'2 6.5
2017-Sep-09 18:23N 40°59' E 028°59'52 2.5
2017-Sep-08 21:36N 41°38' E 029°45'1 8.2
2017-Sep-08 21:30N 41°38' E 029°46'4 8.1
2017-Sep-08 20:59N 41°40' E 029°50'4 8.0
2017-Sep-08 20:30N 41°42' E 029°55'6 8.0
2017-Sep-08 19:46N 41°46' E 030°01'2 8.1
2017-Sep-08 19:30N 41°47' E 030°04'4 8.1
2017-Sep-08 19:00N 41°49' E 030°08'4 8.1
2017-Sep-08 18:30N 41°51' E 030°13'340 7.2
2017-Sep-06 19:00N 45°15' E 036°28'3 6.7
2017-Sep-06 18:30N 45°18' E 036°29'4 7.5
2017-Sep-06 18:00N 45°20' E 036°34'4 7.1
2017-Sep-06 17:30N 45°21' E 036°39'4 7.3
2017-Sep-06 17:00N 45°25' E 036°41'2 4.8
2017-Sep-06 16:30N 45°27' E 036°39'1 2.6
2017-Sep-06 15:59N 45°28' E 036°38'0 0.0
2017-Sep-06 15:29N 45°27' E 036°38'0 0.0
2017-Sep-06 14:59N 45°27' E 036°38'0 0.0
2017-Sep-06 14:29N 45°27' E 036°38'0 0.0
2017-Sep-06 13:50N 45°27' E 036°38'0 0.0
2017-Sep-06 13:29N 45°27' E 036°38'0 0.0
2017-Sep-06 12:53N 45°27' E 036°38'0 0.0
2017-Sep-06 12:29N 45°27' E 036°38'0 0.0
2017-Sep-06 11:47N 45°27' E 036°38'0 0.0
2017-Sep-06 11:14N 45°27' E 036°38'0 0.0
2017-Sep-06 10:56N 45°27' E 036°38'0 0.0
2017-Sep-06 10:26N 45°27' E 036°38'0 0.0
2017-Sep-06 09:59N 45°27' E 036°38'0 0.0
2017-Sep-06 08:41N 45°27' E 036°38'0 0.1
2017-Sep-06 08:29N 45°27' E 036°38'0 0.0
2017-Sep-06 07:59N 45°27' E 036°38'0 0.0
2017-Sep-06 07:29N 45°27' E 036°38'0 0.0
2017-Sep-06 06:47N 45°27' E 036°38'0 0.0
2017-Sep-06 06:29N 45°27' E 036°38'0 0.0
2017-Sep-06 05:59N 45°27' E 036°38'0 0.0
2017-Sep-06 05:29N 45°27' E 036°38'0 0.6
2017-Sep-06 05:00N 45°28' E 036°37'5 7.2
2017-Sep-06 04:17N 45°33' E 036°39'  
2017-Sep-01 03:36N 45°40' E 036°46'7 7.5
2017-Sep-01 02:42N 45°33' E 036°45'2 7.6
2017-Sep-01 02:27N 45°31' E 036°45'3 7.9
2017-Sep-01 02:00N 45°28' E 036°43'4 8.1
2017-Sep-01 01:31N 45°24' E 036°41'4 7.5
2017-Sep-01 01:01N 45°21' E 036°39'4 8.1
2017-Sep-01 00:31N 45°19' E 036°34'3 6.9
2017-Sep-01 00:00N 45°18' E 036°29'3 5.6
2017-Aug-31 23:30N 45°15' E 036°29'2 1.5
2017-Aug-31 22:01N 45°13' E 036°31'0 0.0
2017-Aug-31 20:52N 45°13' E 036°31'0 0.0
2017-Aug-31 20:16N 45°13' E 036°31'0 0.0
2017-Aug-31 19:49N 45°13' E 036°31'0 0.0
2017-Aug-31 18:43N 45°13' E 036°31'0 0.1
2017-Aug-31 18:22N 45°13' E 036°31'0 0.0
2017-Aug-31 17:52N 45°13' E 036°31'0 0.0
2017-Aug-31 17:30N 45°13' E 036°31'  
Track history (hours):
 
Tides and Currents Weather Stations Pressure Air Temp Water Temp Dewpoint Dewpoint Depression Visibility Wind Speed Wind Dir Waves Ship Positions

Alm Tesl

Last reported at 2017-Sep-10 06:16 UTC. Time now 2017-Sep-24 15:44 UTC.
Position N 40°42' E 027°26'.
Warning: this ship's position is 14 days out of date.

Length 88 m; draft 12.5 m.

Type: Cargo ship. MMSI: 201222000.

Date/timePositionNaut miles runAvg speedWind from/ knotsBaromVisibWave heightAir tempDewpointWater temp
2017-Sep-10 06:16N 40°42' E 027°26'2 7.7
2017-Sep-10 06:00N 40°43' E 027°28'4 7.6
2017-Sep-10 05:30N 40°45' E 027°32'34 7.4
2017-Sep-10 00:56N 40°52' E 028°16'18 7.6
2017-Sep-09 22:35N 40°54' E 028°40'2 7.7
2017-Sep-09 22:16N 40°55' E 028°43'11 3.0
2017-Sep-09 18:45N 40°58' E 028°56'2 6.5
2017-Sep-09 18:23N 40°59' E 028°59'52 2.5
2017-Sep-08 21:36N 41°38' E 029°45'1 8.2
2017-Sep-08 21:30N 41°38' E 029°46'4 8.1
2017-Sep-08 20:59N 41°40' E 029°50'4 8.0
2017-Sep-08 20:30N 41°42' E 029°55'6 8.0
2017-Sep-08 19:46N 41°46' E 030°01'2 8.1
2017-Sep-08 19:30N 41°47' E 030°04'4 8.1
2017-Sep-08 19:00N 41°49' E 030°08'4 8.1
2017-Sep-08 18:30N 41°51' E 030°13'340 7.2
2017-Sep-06 19:00N 45°15' E 036°28'3 6.7
2017-Sep-06 18:30N 45°18' E 036°29'4 7.5
2017-Sep-06 18:00N 45°20' E 036°34'4 7.1
2017-Sep-06 17:30N 45°21' E 036°39'4 7.3
2017-Sep-06 17:00N 45°25' E 036°41'2 4.8
2017-Sep-06 16:30N 45°27' E 036°39'1 2.6
2017-Sep-06 15:59N 45°28' E 036°38'0 0.0
2017-Sep-06 15:29N 45°27' E 036°38'0 0.0
2017-Sep-06 14:59N 45°27' E 036°38'0 0.0
2017-Sep-06 14:29N 45°27' E 036°38'0 0.0
2017-Sep-06 13:50N 45°27' E 036°38'0 0.0
2017-Sep-06 13:29N 45°27' E 036°38'0 0.0
2017-Sep-06 12:53N 45°27' E 036°38'0 0.0
2017-Sep-06 12:29N 45°27' E 036°38'0 0.0
2017-Sep-06 11:47N 45°27' E 036°38'0 0.0
2017-Sep-06 11:14N 45°27' E 036°38'0 0.0
2017-Sep-06 10:56N 45°27' E 036°38'0 0.0
2017-Sep-06 10:26N 45°27' E 036°38'0 0.0
2017-Sep-06 09:59N 45°27' E 036°38'0 0.0
2017-Sep-06 08:41N 45°27' E 036°38'0 0.1
2017-Sep-06 08:29N 45°27' E 036°38'0 0.0
2017-Sep-06 07:59N 45°27' E 036°38'0 0.0
2017-Sep-06 07:29N 45°27' E 036°38'0 0.0
2017-Sep-06 06:47N 45°27' E 036°38'0 0.0
2017-Sep-06 06:29N 45°27' E 036°38'0 0.0
2017-Sep-06 05:59N 45°27' E 036°38'0 0.0
2017-Sep-06 05:29N 45°27' E 036°38'0 0.6
2017-Sep-06 05:00N 45°28' E 036°37'5 7.2
2017-Sep-06 04:17N 45°33' E 036°39'  
2017-Sep-01 03:36N 45°40' E 036°46'7 7.5
2017-Sep-01 02:42N 45°33' E 036°45'2 7.6
2017-Sep-01 02:27N 45°31' E 036°45'3 7.9
2017-Sep-01 02:00N 45°28' E 036°43'4 8.1
2017-Sep-01 01:31N 45°24' E 036°41'4 7.5
2017-Sep-01 01:01N 45°21' E 036°39'4 8.1
2017-Sep-01 00:31N 45°19' E 036°34'3 6.9
2017-Sep-01 00:00N 45°18' E 036°29'3 5.6
2017-Aug-31 23:30N 45°15' E 036°29'2 1.5
2017-Aug-31 22:01N 45°13' E 036°31'0 0.0
2017-Aug-31 20:52N 45°13' E 036°31'0 0.0
2017-Aug-31 20:16N 45°13' E 036°31'0 0.0
2017-Aug-31 19:49N 45°13' E 036°31'0 0.0
2017-Aug-31 18:43N 45°13' E 036°31'0 0.1
2017-Aug-31 18:22N 45°13' E 036°31'0 0.0
2017-Aug-31 17:52N 45°13' E 036°31'0 0.0
2017-Aug-31 17:30N 45°13' E 036°31'  

Dump ship's entire track history